createdAt,value
2017-11-24T00:00:09.431Z,4.70
2017-11-24T00:02:37.523Z,4.50
2017-11-24T00:05:05.608Z,5.00
2017-11-24T00:07:34.456Z,4.80
2017-11-24T00:10:02.537Z,4.50
2017-11-24T00:12:30.624Z,4.40
2017-11-24T00:14:58.695Z,4.90
2017-11-24T00:17:26.776Z,5.40
2017-11-24T00:19:55.624Z,5.20
2017-11-24T00:22:23.700Z,4.83
2017-11-24T00:24:51.760Z,5.43
2017-11-24T00:27:19.842Z,5.00
2017-11-24T00:29:47.920Z,5.00
2017-11-24T00:32:16.004Z,4.90
2017-11-24T00:34:44.080Z,5.07
2017-11-24T00:37:12.152Z,4.40
2017-11-24T00:39:40.224Z,4.90
2017-11-24T00:42:09.068Z,4.43
2017-11-24T00:44:37.165Z,4.57
2017-11-24T00:47:05.244Z,5.00
2017-11-24T00:49:33.316Z,4.60
2017-11-24T00:52:01.396Z,5.20
2017-11-24T00:54:30.236Z,4.73
2017-11-24T00:56:58.331Z,5.07
2017-11-24T00:59:26.408Z,5.13
2017-11-24T01:01:54.489Z,5.00
2017-11-24T01:04:23.338Z,4.80
2017-11-24T01:06:51.424Z,4.80
2017-11-24T01:09:19.496Z,4.33
2017-11-24T01:11:53.456Z,4.97
2017-11-24T01:14:21.530Z,4.60
2017-11-24T01:16:49.618Z,4.60
2017-11-24T01:19:17.705Z,4.03
2017-11-24T01:21:45.774Z,4.97
2017-11-24T01:24:13.852Z,4.60
2017-11-24T01:26:41.932Z,5.00
2017-11-24T01:29:10.019Z,4.40
2017-11-24T01:31:38.080Z,4.83
2017-11-24T01:34:06.168Z,4.40
2017-11-24T01:36:35.012Z,4.83
2017-11-24T01:39:03.091Z,4.93
2017-11-24T01:41:31.166Z,4.10
2017-11-24T01:43:59.251Z,4.70
2017-11-24T01:46:27.332Z,4.37
2017-11-24T01:48:56.183Z,5.73
2017-11-24T01:51:24.253Z,4.80
2017-11-24T01:53:52.339Z,4.10
2017-11-24T01:56:20.491Z,5.30
2017-11-24T01:58:48.636Z,4.87
2017-11-24T02:01:16.711Z,4.57
2017-11-24T02:03:44.829Z,5.30
2017-11-24T02:06:12.910Z,4.20
2017-11-24T02:08:41.797Z,4.10
2017-11-24T02:11:09.876Z,5.00
2017-11-24T02:13:38.718Z,4.90
2017-11-24T02:16:06.793Z,5.23
2017-11-24T02:18:34.868Z,5.20
2017-11-24T02:21:02.964Z,5.57
2017-11-24T02:23:31.035Z,5.10
2017-11-24T02:25:59.105Z,5.03
2017-11-24T02:28:27.175Z,5.50
2017-11-24T02:30:55.256Z,4.40
2017-11-24T02:33:24.101Z,4.90
2017-11-24T02:35:52.189Z,4.90
2017-11-24T02:38:20.273Z,5.10
2017-11-24T02:40:48.348Z,5.10
2017-11-24T02:43:17.197Z,4.77
2017-11-24T02:45:45.278Z,4.30
2017-11-24T02:48:13.404Z,4.70
2017-11-24T02:50:42.298Z,4.73
2017-11-24T02:53:11.157Z,4.87
2017-11-24T02:55:39.261Z,4.50
2017-11-24T02:58:08.130Z,4.77
2017-11-24T03:00:36.238Z,5.00
2017-11-24T03:03:04.351Z,5.10
2017-11-24T03:05:32.408Z,4.97
2017-11-24T03:08:00.503Z,4.70
2017-11-24T03:10:29.344Z,4.40
2017-11-24T03:12:57.428Z,4.50
2017-11-24T03:15:25.516Z,4.50
2017-11-24T03:17:53.594Z,3.80
2017-11-24T03:20:21.664Z,4.40
2017-11-24T03:22:50.512Z,4.90
2017-11-24T03:25:18.580Z,5.30
2017-11-24T03:27:46.685Z,4.10
2017-11-24T03:30:14.746Z,5.07
2017-11-24T03:32:42.823Z,4.33
2017-11-24T03:35:10.908Z,3.70
2017-11-24T03:37:39.747Z,4.50
2017-11-24T03:40:07.900Z,4.87
2017-11-24T03:42:35.973Z,4.50
2017-11-24T03:45:04.060Z,4.30
2017-11-24T03:47:32.184Z,4.97
2017-11-24T03:50:00.269Z,4.77
2017-11-24T03:52:28.341Z,4.90
2017-11-24T03:54:56.420Z,4.60
2017-11-24T03:57:24.488Z,4.67
2017-11-24T03:59:52.592Z,4.80
2017-11-24T04:02:20.682Z,4.70
2017-11-24T04:04:48.764Z,4.83
2017-11-24T04:07:16.938Z,4.90
2017-11-24T04:09:45.033Z,4.67
2017-11-24T04:12:13.104Z,4.23
2017-11-24T04:14:41.173Z,5.60
2017-11-24T04:17:09.245Z,4.70
2017-11-24T04:19:37.320Z,5.13
2017-11-24T04:22:05.624Z,4.67
2017-11-24T04:24:33.832Z,5.00
2017-11-24T04:27:01.907Z,4.70
2017-11-24T04:29:29.983Z,5.40
2017-11-24T04:31:58.822Z,4.70
2017-11-24T04:34:26.898Z,4.53
2017-11-24T04:36:54.989Z,4.40
2017-11-24T04:39:23.069Z,5.07
2017-11-24T04:41:51.141Z,4.73
2017-11-24T04:44:19.226Z,4.83
2017-11-24T04:46:48.064Z,6.10
2017-11-24T04:49:16.137Z,5.00
2017-11-24T04:51:44.228Z,5.60
2017-11-24T04:54:12.312Z,5.27
2017-11-24T04:56:40.384Z,4.73
2017-11-24T04:59:08.463Z,5.00
2017-11-24T05:01:37.310Z,5.10
2017-11-24T05:04:05.378Z,5.10
2017-11-24T05:06:33.460Z,5.17
2017-11-24T05:09:01.525Z,4.80
2017-11-24T05:11:29.599Z,5.00
2017-11-24T05:13:57.670Z,5.10
2017-11-24T05:16:25.767Z,4.97
2017-11-24T05:18:54.746Z,5.33
2017-11-24T05:21:22.788Z,5.47
2017-11-24T05:23:50.877Z,5.90
2017-11-24T05:26:18.943Z,5.40
2017-11-24T05:28:47.024Z,6.20
2017-11-24T05:31:15.088Z,5.70
2017-11-24T05:33:43.159Z,5.27
2017-11-24T05:36:11.255Z,5.60
2017-11-24T05:38:40.165Z,5.50
2017-11-24T05:41:08.236Z,6.60
2017-11-24T05:43:36.322Z,5.60
2017-11-24T05:46:04.388Z,5.80
2017-11-24T05:48:32.464Z,5.93
2017-11-24T05:51:00.543Z,6.30
2017-11-24T05:53:28.619Z,5.90
2017-11-24T05:55:56.693Z,6.30
2017-11-24T05:58:24.779Z,5.90
2017-11-24T06:00:52.864Z,7.40
2017-11-24T06:03:20.949Z,8.10
2017-11-24T06:05:49.789Z,7.47
2017-11-24T06:08:17.877Z,8.70
2017-11-24T06:10:45.951Z,7.53
2017-11-24T06:13:14.029Z,6.93
2017-11-24T06:15:42.113Z,7.73
2017-11-24T06:18:10.973Z,8.33
2017-11-24T06:20:39.041Z,6.70
2017-11-24T06:23:07.128Z,5.43
2017-11-24T06:25:35.218Z,6.53
2017-11-24T06:28:04.057Z,6.93
2017-11-24T06:30:32.130Z,6.00
2017-11-24T06:33:00.215Z,5.80
2017-11-24T06:35:29.065Z,7.00
2017-11-24T06:37:59.427Z,6.77
2017-11-24T06:40:29.570Z,7.03
2017-11-24T06:43:01.251Z,8.07
2017-11-24T06:45:32.985Z,5.60
2017-11-24T06:48:04.704Z,6.20
2017-11-24T06:50:42.917Z,6.33
2017-11-24T06:53:14.213Z,6.30
2017-11-24T06:58:31.614Z,6.00
2017-11-24T07:04:10.163Z,5.50
2017-11-24T07:06:44.346Z,5.93
2017-11-24T07:09:23.420Z,6.13
2017-11-24T07:11:54.818Z,6.03
2017-11-24T09:23:27.665Z,4.80
2017-11-24T09:26:00.856Z,4.50
2017-11-24T09:28:30.224Z,4.70
2017-11-24T09:35:14.885Z,4.33
2017-11-24T09:37:46.351Z,4.20
2017-11-24T09:40:16.856Z,3.97
2017-11-24T09:42:47.937Z,4.40
2017-11-24T09:45:19.046Z,3.80
2017-11-24T09:47:54.163Z,4.40
2017-11-24T09:50:24.815Z,3.87
2017-11-24T09:53:21.735Z,4.40
2017-11-24T10:00:05.818Z,4.30
2017-11-24T10:08:12.717Z,4.67
2017-11-24T10:10:44.429Z,3.90
2017-11-24T10:13:13.645Z,4.30
2017-11-24T10:15:44.694Z,4.50
2017-11-24T10:18:23.512Z,4.23
2017-11-24T10:21:01.325Z,3.80
2017-11-24T10:23:44.235Z,4.43
2017-11-24T10:26:23.258Z,4.53
2017-11-24T10:28:55.951Z,4.47
2017-11-24T10:31:57.347Z,4.60
2017-11-24T10:34:26.294Z,4.70
2017-11-24T10:36:56.678Z,5.40
2017-11-24T10:39:34.889Z,4.50
2017-11-24T10:42:13.841Z,4.53
2017-11-24T10:44:46.883Z,4.57
2017-11-24T10:47:23.219Z,4.80
2017-11-24T10:50:06.720Z,5.00
2017-11-24T10:52:38.901Z,4.87
2017-11-24T10:55:42.238Z,4.70
2017-11-24T10:58:11.332Z,4.30
2017-11-24T11:00:54.747Z,3.77
2017-11-24T11:03:33.716Z,4.40
2017-11-24T11:09:34.670Z,4.50
2017-11-24T11:12:13.414Z,4.70
2017-11-24T11:14:51.978Z,4.10
2017-11-24T11:17:20.095Z,5.17
2017-11-24T11:22:45.473Z,4.87
2017-11-24T11:25:20.646Z,4.57
2017-11-24T11:28:03.862Z,3.97
2017-11-24T11:33:30.180Z,3.90
2017-11-24T11:38:48.253Z,3.80
2017-11-24T11:41:21.150Z,4.33
2017-11-24T11:43:58.513Z,4.27
2017-11-24T11:46:28.071Z,4.43
2017-11-24T11:49:02.973Z,4.13
2017-11-24T11:51:32.525Z,4.10
2017-11-24T11:57:06.612Z,3.23
2017-11-24T11:59:38.216Z,3.23
2017-11-24T12:02:13.574Z,3.77
2017-11-24T12:05:05.458Z,3.43
2017-11-24T12:07:45.914Z,3.27
2017-11-24T12:10:21.919Z,4.23
2017-11-24T12:12:54.907Z,3.10
2017-11-24T12:18:04.806Z,4.00
2017-11-24T12:20:34.881Z,3.40
2017-11-24T12:23:09.730Z,4.60
2017-11-24T12:25:42.705Z,4.13
2017-11-24T12:28:16.214Z,3.87
2017-11-24T12:30:46.416Z,4.53
2017-11-24T12:33:15.034Z,3.43
2017-11-24T12:35:58.873Z,3.80
2017-11-24T12:38:28.330Z,4.17
2017-11-24T12:41:05.401Z,3.50
2017-11-24T12:43:37.775Z,3.27
2017-11-24T12:46:09.687Z,3.77
2017-11-24T12:48:42.783Z,4.03
